Time;durP1;ratioP1;P1;durP2;ratioP2;P2;SDS_P1;SDS_P2;PMS_P1;PMS_P2;Temp;Humidity;BMP_temperature;BMP_pressure;BME280_temperature;BME280_humidity;BME280_pressure;Samples;Min_cycle;Max_cycle;Signal;HPM_P1;HPM_P2
2022/03/28 00:01:39;;;;;;;24.75;7.13;;;;;;;;;;5036316;28;20037;-70
2022/03/28 00:04:05;;;;;;;23.58;6.63;;;;;;;;;;5038112;28;20025;-70
2022/03/28 00:06:32;;;;;;;37.20;7.78;;;;;;;;;;5039307;28;20048;-70
2022/03/28 00:08:58;;;;;;;24.17;7.85;;;;;;;;;;5035450;28;20493;-70
2022/03/28 00:11:26;;;;;;;33.55;7.88;;;;;;;;;;5040104;28;20043;-70
2022/03/28 00:13:53;;;;;;;22.67;6.22;;;;;;;;;;5035486;28;20029;-70
2022/03/28 00:16:19;;;;;;;40.90;6.70;;;;;;;;;;5035117;28;20032;-70
2022/03/28 00:18:45;;;;;;;33.38;7.32;;;;;;;;;;5048887;28;20029;-71
2022/03/28 00:21:11;;;;;;;27.42;7.18;;;;;;;;;;5027679;28;20425;-70
2022/03/28 00:23:37;;;;;;;31.48;7.28;;;;;;;;;;5035109;28;20056;-70
2022/03/28 00:26:03;;;;;;;27.67;6.53;;;;;;;;;;5041926;28;20417;-70
2022/03/28 00:28:30;;;;;;;31.98;8.23;;;;;;;;;;5039904;28;20393;-71
2022/03/28 00:30:56;;;;;;;23.45;6.93;;;;;;;;;;5049697;28;20067;-70
2022/03/28 00:33:22;;;;;;;32.08;7.20;;;;;;;;;;5038253;28;20021;-70
2022/03/28 00:35:48;;;;;;;22.58;6.28;;;;;;;;;;5037588;28;20424;-70
2022/03/28 00:38:14;;;;;;;21.73;7.63;;;;;;;;;;5035284;28;20026;-70
2022/03/28 00:40:40;;;;;;;23.55;6.40;;;;;;;;;;5044873;28;20064;-70
2022/03/28 00:43:08;;;;;;;24.17;7.15;;;;;;;;;;5035206;28;20105;-70
2022/03/28 00:45:39;;;;;;;23.92;6.15;;;;;;;;;;5037694;28;20033;-73
2022/03/28 00:48:06;;;;;;;21.83;6.17;;;;;;;;;;5040490;28;20039;-71
2022/03/28 00:50:32;;;;;;;18.95;6.78;;;;;;;;;;5037613;28;20021;-70
2022/03/28 00:53:00;;;;;;;25.92;6.60;;;;;;;;;;5033740;28;20033;-71
2022/03/28 00:55:26;;;;;;;21.60;6.63;;;;;;;;;;5039853;28;20032;-73
2022/03/28 00:57:53;;;;;;;18.42;6.55;;;;;;;;;;5041235;28;20037;-70
2022/03/28 01:00:19;;;;;;;23.50;7.82;;;;;;;;;;5037600;28;20017;-70
2022/03/28 01:02:46;;;;;;;25.73;7.55;;;;;;;;;;5032859;28;20034;-71
2022/03/28 01:05:12;;;;;;;25.25;7.00;;;;;;;;;;5035293;28;20393;-70
2022/03/28 01:07:39;;;;;;;24.08;7.18;;;;;;;;;;5045769;28;20029;-71
2022/03/28 01:10:06;;;;;;;24.92;6.72;;;;;;;;;;5036954;28;20029;-71
2022/03/28 01:12:34;;;;;;;24.50;7.15;;;;;;;;;;5013439;28;20515;-70
2022/03/28 01:15:00;;;;;;;22.33;6.50;;;;;;;;;;5036144;28;20052;-70
2022/03/28 01:18:12;;;;;;;23.08;7.32;;;;;;;;;;5038142;28;20500;-71
2022/03/28 01:20:13;;;;;;;22.45;6.72;;;;;;;;;;5029883;28;20448;-70
2022/03/28 01:22:39;;;;;;;27.60;8.13;;;;;;;;;;5037313;28;20027;-70
2022/03/28 01:25:07;;;;;;;23.75;7.55;;;;;;;;;;5040401;28;20029;-70
2022/03/28 01:27:36;;;;;;;24.58;7.38;;;;;;;;;;5044198;28;20107;-70
2022/03/28 01:30:02;;;;;;;24.05;6.25;;;;;;;;;;5036555;28;20025;-70
2022/03/28 01:32:28;;;;;;;23.42;6.45;;;;;;;;;;5035722;28;20037;-70
2022/03/28 01:34:54;;;;;;;22.80;6.57;;;;;;;;;;5034672;28;20022;-70
2022/03/28 01:37:20;;;;;;;27.83;7.28;;;;;;;;;;5035540;28;20037;-70
2022/03/28 01:39:46;;;;;;;26.08;6.60;;;;;;;;;;5033584;28;20026;-71
2022/03/28 01:42:12;;;;;;;33.85;7.25;;;;;;;;;;5036406;28;20029;-70
2022/03/28 01:44:39;;;;;;;27.60;7.50;;;;;;;;;;5035830;28;20033;-70
2022/03/28 01:47:05;;;;;;;20.92;7.10;;;;;;;;;;5039947;28;20044;-71
2022/03/28 01:49:31;;;;;;;23.20;6.82;;;;;;;;;;5038302;28;20029;-70
2022/03/28 01:51:57;;;;;;;18.85;6.82;;;;;;;;;;5042106;28;20028;-70
2022/03/28 01:54:23;;;;;;;28.02;6.82;;;;;;;;;;5039193;28;20037;-71
2022/03/28 01:56:49;;;;;;;26.10;7.13;;;;;;;;;;5040205;28;20033;-70
2022/03/28 01:59:16;;;;;;;20.13;7.22;;;;;;;;;;5038740;28;20018;-70
2022/03/28 02:01:42;;;;;;;23.25;6.10;;;;;;;;;;5029593;28;20545;-70
2022/03/28 02:04:08;;;;;;;30.77;7.30;;;;;;;;;;5038421;28;20025;-70
2022/03/28 02:06:34;;;;;;;19.85;6.38;;;;;;;;;;5039534;28;20049;-70
2022/03/28 02:09:01;;;;;;;26.23;6.45;;;;;;;;;;5041541;28;20100;-70
2022/03/28 02:11:28;;;;;;;24.00;6.97;;;;;;;;;;5033598;28;20029;-70
2022/03/28 02:13:55;;;;;;;19.23;5.55;;;;;;;;;;5040714;28;20032;-70
2022/03/28 02:16:21;;;;;;;30.85;6.97;;;;;;;;;;5015988;28;20393;-70
2022/03/28 02:18:47;;;;;;;22.73;6.45;;;;;;;;;;5025447;28;20464;-70
2022/03/28 02:21:13;;;;;;;26.20;6.97;;;;;;;;;;5033874;28;20094;-70
2022/03/28 02:23:39;;;;;;;19.80;6.35;;;;;;;;;;5042392;28;20034;-70
2022/03/28 02:26:07;;;;;;;20.92;6.60;;;;;;;;;;5043307;28;20037;-71
2022/03/28 02:28:33;;;;;;;23.20;7.65;;;;;;;;;;5034921;28;20108;-70
2022/03/28 02:31:00;;;;;;;27.00;7.30;;;;;;;;;;5018257;28;20048;-70
2022/03/28 02:33:26;;;;;;;27.35;6.85;;;;;;;;;;5031910;28;20030;-71
2022/03/28 02:35:52;;;;;;;26.73;7.57;;;;;;;;;;5035023;28;20548;-70
2022/03/28 02:38:18;;;;;;;22.25;6.07;;;;;;;;;;5036420;28;20079;-70
2022/03/28 02:40:44;;;;;;;20.42;6.43;;;;;;;;;;5035244;28;20035;-71
2022/03/28 02:43:10;;;;;;;26.60;7.35;;;;;;;;;;5036617;28;20027;-70
2022/03/28 02:45:38;;;;;;;17.00;7.80;;;;;;;;;;5016347;28;20076;-70
2022/03/28 02:48:04;;;;;;;14.15;4.50;;;;;;;;;;5040506;28;20044;-71
2022/03/28 02:50:31;;;;;;;18.88;6.40;;;;;;;;;;5035555;28;20079;-70
2022/03/28 02:52:57;;;;;;;16.45;5.00;;;;;;;;;;5034552;28;20025;-70
2022/03/28 02:55:24;;;;;;;18.77;5.80;;;;;;;;;;5030163;28;20104;-71
2022/03/28 02:57:51;;;;;;;27.67;5.82;;;;;;;;;;5034599;28;20038;-70
2022/03/28 03:00:18;;;;;;;24.13;5.57;;;;;;;;;;5035113;28;20018;-70
2022/03/28 03:02:44;;;;;;;21.63;5.13;;;;;;;;;;5033601;28;20040;-71
2022/03/28 03:05:11;;;;;;;25.98;5.80;;;;;;;;;;5037039;28;20045;-70
2022/03/28 03:07:37;;;;;;;20.83;5.53;;;;;;;;;;5030572;28;20068;-70
2022/03/28 03:10:04;;;;;;;22.73;5.28;;;;;;;;;;5029527;28;20033;-71
2022/03/28 03:12:30;;;;;;;21.52;7.85;;;;;;;;;;5029483;28;20045;-70
2022/03/28 03:14:56;;;;;;;29.17;7.05;;;;;;;;;;5038776;28;20119;-70
2022/03/28 03:17:23;;;;;;;21.75;6.97;;;;;;;;;;5029707;28;20094;-71
2022/03/28 03:19:49;;;;;;;25.83;7.13;;;;;;;;;;5036183;28;20041;-70
2022/03/28 03:22:15;;;;;;;18.83;6.10;;;;;;;;;;5042021;28;20051;-71
2022/03/28 03:24:42;;;;;;;24.27;6.68;;;;;;;;;;5040321;28;20381;-70
2022/03/28 03:27:09;;;;;;;19.08;6.35;;;;;;;;;;5040392;28;20040;-70
2022/03/28 03:29:35;;;;;;;24.02;7.25;;;;;;;;;;5041767;28;20089;-70
2022/03/28 03:32:03;;;;;;;26.13;7.22;;;;;;;;;;5041248;28;20033;-70
2022/03/28 03:34:29;;;;;;;25.90;7.00;;;;;;;;;;5041589;28;20104;-70
2022/03/28 03:36:55;;;;;;;21.83;6.18;;;;;;;;;;5040809;28;20025;-70
2022/03/28 03:39:25;;;;;;;26.60;6.40;;;;;;;;;;5041863;28;20021;-70
2022/03/28 03:41:52;;;;;;;21.95;7.25;;;;;;;;;;5041294;28;20573;-70
2022/03/28 03:44:19;;;;;;;31.38;7.05;;;;;;;;;;5040379;28;20029;-70
2022/03/28 03:46:45;;;;;;;23.38;6.47;;;;;;;;;;5050961;28;20033;-70
2022/03/28 03:49:11;;;;;;;20.17;6.53;;;;;;;;;;5061260;28;20078;-70
2022/03/28 03:51:37;;;;;;;20.13;6.10;;;;;;;;;;5061736;28;20051;-69
2022/03/28 03:54:04;;;;;;;26.73;7.25;;;;;;;;;;5061285;28;20120;-70
2022/03/28 03:56:30;;;;;;;24.40;6.75;;;;;;;;;;5059996;28;20097;-70
2022/03/28 03:58:57;;;;;;;15.82;6.32;;;;;;;;;;5061197;28;20507;-70
2022/03/28 04:01:23;;;;;;;26.00;7.22;;;;;;;;;;5061123;28;20041;-70
2022/03/28 04:03:49;;;;;;;18.50;6.45;;;;;;;;;;5060704;28;20024;-70
2022/03/28 04:06:16;;;;;;;25.92;6.82;;;;;;;;;;5061094;28;20044;-71
2022/03/28 04:08:42;;;;;;;22.98;7.45;;;;;;;;;;5059555;28;20024;-70
2022/03/28 04:11:08;;;;;;;15.10;6.05;;;;;;;;;;5060735;28;20492;-70
2022/03/28 04:13:35;;;;;;;27.92;6.97;;;;;;;;;;5060856;28;20841;-70
2022/03/28 04:16:02;;;;;;;28.17;6.80;;;;;;;;;;5059157;28;20052;-70
2022/03/28 04:18:28;;;;;;;24.15;6.55;;;;;;;;;;5061174;28;20078;-71
2022/03/28 04:20:54;;;;;;;23.52;5.85;;;;;;;;;;5060944;28;20041;-70
2022/03/28 04:23:21;;;;;;;24.08;6.80;;;;;;;;;;5057820;28;20021;-70
2022/03/28 04:25:47;;;;;;;19.15;5.82;;;;;;;;;;5060699;28;20029;-70
2022/03/28 04:28:14;;;;;;;26.05;6.68;;;;;;;;;;5041464;28;20086;-70
2022/03/28 04:30:40;;;;;;;15.32;6.10;;;;;;;;;;5041043;28;20105;-70
2022/03/28 04:33:09;;;;;;;18.35;6.80;;;;;;;;;;5039928;28;20099;-70
2022/03/28 04:35:35;;;;;;;20.95;6.47;;;;;;;;;;5025727;28;20029;-70
2022/03/28 04:38:04;;;;;;;25.38;7.53;;;;;;;;;;5022506;28;20034;-70
2022/03/28 04:40:30;;;;;;;31.90;7.53;;;;;;;;;;5033493;28;20031;-70
2022/03/28 04:42:56;;;;;;;28.80;7.75;;;;;;;;;;5062417;28;20029;-70
2022/03/28 04:45:23;;;;;;;17.73;6.75;;;;;;;;;;5062760;28;20032;-70
2022/03/28 04:47:49;;;;;;;16.00;6.75;;;;;;;;;;5062493;28;20028;-70
2022/03/28 04:50:15;;;;;;;21.08;6.65;;;;;;;;;;5060677;28;20170;-70
2022/03/28 04:52:41;;;;;;;23.80;6.50;;;;;;;;;;5062374;28;20031;-70
2022/03/28 04:55:07;;;;;;;21.55;5.95;;;;;;;;;;5062253;28;20024;-70
2022/03/28 04:57:34;;;;;;;22.48;6.70;;;;;;;;;;5049883;28;20583;-70
2022/03/28 05:00:00;;;;;;;22.38;6.47;;;;;;;;;;5039814;28;20108;-70
2022/03/28 05:02:26;;;;;;;25.02;6.88;;;;;;;;;;5020593;28;20935;-70
2022/03/28 05:04:52;;;;;;;21.73;6.70;;;;;;;;;;5001684;28;20050;-70
2022/03/28 05:07:29;;;;;;;20.33;6.45;;;;;;;;;;5034517;28;20048;-70
2022/03/28 05:09:56;;;;;;;17.33;6.70;;;;;;;;;;5040055;28;20059;-70
2022/03/28 05:12:22;;;;;;;24.42;7.20;;;;;;;;;;5048437;28;20650;-70
2022/03/28 05:14:49;;;;;;;24.90;6.72;;;;;;;;;;5060440;28;20028;-70
2022/03/28 05:17:15;;;;;;;19.98;6.20;;;;;;;;;;5058919;28;20028;-70
2022/03/28 05:19:43;;;;;;;24.45;6.88;;;;;;;;;;5059592;28;20033;-70
2022/03/28 05:22:09;;;;;;;17.58;5.82;;;;;;;;;;5059399;28;20108;-70
2022/03/28 05:24:35;;;;;;;24.13;6.22;;;;;;;;;;5060043;28;20029;-70
2022/03/28 05:27:01;;;;;;;24.60;6.30;;;;;;;;;;5060375;28;20032;-70
2022/03/28 05:29:28;;;;;;;24.23;6.05;;;;;;;;;;5058248;28;20087;-70
2022/03/28 05:31:54;;;;;;;19.75;6.78;;;;;;;;;;5058223;28;20032;-70
2022/03/28 05:34:20;;;;;;;17.95;5.55;;;;;;;;;;5060243;28;20028;-70
2022/03/28 05:36:46;;;;;;;21.35;5.93;;;;;;;;;;5058618;28;20101;-70
2022/03/28 05:39:13;;;;;;;25.73;6.05;;;;;;;;;;5059479;28;20629;-70
2022/03/28 05:41:39;;;;;;;22.52;6.35;;;;;;;;;;5059239;28;20545;-70
2022/03/28 05:44:05;;;;;;;21.10;6.35;;;;;;;;;;5059899;28;20039;-70
2022/03/28 05:46:31;;;;;;;18.48;5.97;;;;;;;;;;5059741;28;20217;-70
2022/03/28 05:48:57;;;;;;;22.77;6.50;;;;;;;;;;5057965;28;20025;-71
2022/03/28 05:51:24;;;;;;;24.30;5.22;;;;;;;;;;5056073;28;20043;-70
2022/03/28 05:53:50;;;;;;;19.60;5.80;;;;;;;;;;5060026;28;20035;-70
2022/03/28 05:56:16;;;;;;;21.00;6.60;;;;;;;;;;5055885;28;20063;-70
2022/03/28 05:58:42;;;;;;;24.73;6.88;;;;;;;;;;5038373;28;20029;-70
2022/03/28 06:01:09;;;;;;;27.25;6.85;;;;;;;;;;5037461;28;20032;-70
2022/03/28 06:03:35;;;;;;;28.83;7.22;;;;;;;;;;5053561;28;20029;-70
2022/03/28 06:06:03;;;;;;;25.00;8.02;;;;;;;;;;5057632;28;20061;-70
2022/03/28 06:08:29;;;;;;;22.50;8.23;;;;;;;;;;5063307;28;20055;-70
2022/03/28 06:10:56;;;;;;;24.38;6.78;;;;;;;;;;5045831;28;20028;-70
2022/03/28 06:13:22;;;;;;;29.35;8.30;;;;;;;;;;5063684;28;20024;-70
2022/03/28 06:15:49;;;;;;;36.60;8.63;;;;;;;;;;5063353;28;20423;-70
2022/03/28 06:18:15;;;;;;;24.52;8.75;;;;;;;;;;5039019;28;20036;-70
2022/03/28 06:20:42;;;;;;;39.30;8.40;;;;;;;;;;5052886;28;20031;-69
2022/03/28 06:23:09;;;;;;;22.65;7.75;;;;;;;;;;5065579;28;20035;-69
2022/03/28 06:25:35;;;;;;;24.33;7.95;;;;;;;;;;5062062;28;20025;-69
2022/03/28 06:28:02;;;;;;;32.20;8.15;;;;;;;;;;5043626;28;20033;-69
2022/03/28 06:30:28;;;;;;;30.25;8.82;;;;;;;;;;5042931;28;20025;-68
2022/03/28 06:32:54;;;;;;;26.40;8.98;;;;;;;;;;5044200;28;20021;-69
2022/03/28 06:35:20;;;;;;;27.88;8.38;;;;;;;;;;5044425;28;20031;-70
2022/03/28 06:37:50;;;;;;;29.75;9.73;;;;;;;;;;5042755;28;20035;-70
2022/03/28 06:40:17;;;;;;;28.70;8.18;;;;;;;;;;5044770;28;20057;-70
2022/03/28 06:42:43;;;;;;;25.05;7.70;;;;;;;;;;5043462;28;20135;-70
2022/03/28 06:45:10;;;;;;;27.65;8.43;;;;;;;;;;5045017;28;20017;-69
2022/03/28 06:47:37;;;;;;;30.98;7.07;;;;;;;;;;5026592;28;20036;-69
2022/03/28 06:50:05;;;;;;;23.40;7.00;;;;;;;;;;5043166;28;20021;-69
2022/03/28 06:52:31;;;;;;;25.30;7.80;;;;;;;;;;5043225;28;20087;-70
2022/03/28 06:54:58;;;;;;;22.23;6.63;;;;;;;;;;5025248;28;20373;-69
2022/03/28 06:57:24;;;;;;;23.52;7.38;;;;;;;;;;5041935;28;20577;-69
2022/03/28 06:59:50;;;;;;;26.90;7.57;;;;;;;;;;5061637;28;20051;-69
2022/03/28 07:02:16;;;;;;;21.65;6.95;;;;;;;;;;5061799;28;20029;-69
2022/03/28 07:04:42;;;;;;;29.17;7.10;;;;;;;;;;5041887;28;20040;-70
2022/03/28 07:07:08;;;;;;;33.42;8.10;;;;;;;;;;5044450;28;20188;-69
2022/03/28 07:09:35;;;;;;;21.00;6.47;;;;;;;;;;5044313;28;20563;-69
2022/03/28 07:12:03;;;;;;;20.55;6.60;;;;;;;;;;5044491;28;20025;-70
2022/03/28 07:14:29;;;;;;;24.20;7.15;;;;;;;;;;5051902;28;20187;-69
2022/03/28 07:16:55;;;;;;;24.92;9.20;;;;;;;;;;5064246;28;20108;-70
2022/03/28 07:19:22;;;;;;;22.40;7.55;;;;;;;;;;5062167;28;20021;-69
2022/03/28 07:21:48;;;;;;;24.88;6.82;;;;;;;;;;5064528;28;20024;-69
2022/03/28 07:24:17;;;;;;;24.42;7.13;;;;;;;;;;5064295;28;20029;-69
2022/03/28 07:26:48;;;;;;;24.92;7.63;;;;;;;;;;5046091;28;20570;-69
2022/03/28 07:29:15;;;;;;;22.48;6.85;;;;;;;;;;5063934;28;20144;-69
2022/03/28 07:31:41;;;;;;;19.55;6.55;;;;;;;;;;5062821;28;20099;-69
2022/03/28 07:36:53;;;;;;;28.13;6.78;;;;;;;;;;5062337;28;20131;-69
2022/03/28 07:39:22;;;;;;;16.15;5.60;;;;;;;;;;5062640;28;20113;-69
2022/03/28 07:41:48;;;;;;;31.02;7.40;;;;;;;;;;5062368;28;20028;-69
2022/03/28 07:44:15;;;;;;;19.88;6.25;;;;;;;;;;5062556;28;20378;-69
2022/03/28 07:46:43;;;;;;;23.90;6.57;;;;;;;;;;5062335;28;20115;-68
2022/03/28 07:49:10;;;;;;;28.45;7.75;;;;;;;;;;5054119;28;20031;-69
2022/03/28 07:51:36;;;;;;;35.33;6.95;;;;;;;;;;5042469;28;20029;-70
2022/03/28 07:54:03;;;;;;;26.58;6.93;;;;;;;;;;5046917;28;20550;-70
2022/03/28 07:56:29;;;;;;;23.40;6.40;;;;;;;;;;5043486;28;20037;-70
2022/03/28 07:58:55;;;;;;;32.13;7.22;;;;;;;;;;5047259;28;20021;-72
2022/03/28 08:01:21;;;;;;;18.05;6.35;;;;;;;;;;5046292;28;20029;-71
2022/03/28 08:03:47;;;;;;;21.45;7.07;;;;;;;;;;5060650;28;20020;-70
2022/03/28 08:06:13;;;;;;;21.25;7.68;;;;;;;;;;5054422;28;20059;-74
2022/03/28 08:08:40;;;;;;;19.33;6.30;;;;;;;;;;5033688;28;20051;-71
2022/03/28 08:11:07;;;;;;;21.38;7.00;;;;;;;;;;5042021;28;20036;-69
2022/03/28 08:13:33;;;;;;;26.02;7.55;;;;;;;;;;5046816;28;20417;-75
2022/03/28 08:16:00;;;;;;;19.15;7.25;;;;;;;;;;5045797;28;20054;-70
2022/03/28 08:18:26;;;;;;;19.48;7.18;;;;;;;;;;5039618;28;20037;-70
2022/03/28 08:20:53;;;;;;;19.98;6.30;;;;;;;;;;5040486;28;20025;-71
2022/03/28 08:23:22;;;;;;;19.10;6.00;;;;;;;;;;5042573;28;20053;-70
2022/03/28 08:25:49;;;;;;;30.42;7.78;;;;;;;;;;5042904;28;20040;-70
2022/03/28 08:28:16;;;;;;;25.35;8.05;;;;;;;;;;5041920;28;20021;-70
2022/03/28 08:30:42;;;;;;;30.25;8.65;;;;;;;;;;5061887;28;20052;-70
2022/03/28 08:33:09;;;;;;;31.80;9.40;;;;;;;;;;5053327;28;20040;-69
2022/03/28 08:35:35;;;;;;;20.30;8.15;;;;;;;;;;5048273;28;20032;-70
2022/03/28 08:38:01;;;;;;;34.60;8.70;;;;;;;;;;5060408;28;20496;-70
2022/03/28 08:40:28;;;;;;;26.00;9.15;;;;;;;;;;5042818;28;20497;-69
2022/03/28 08:42:54;;;;;;;19.25;8.35;;;;;;;;;;5042409;28;20032;-69
2022/03/28 08:45:20;;;;;;;21.13;7.85;;;;;;;;;;5061127;28;20051;-69
2022/03/28 08:47:48;;;;;;;29.10;8.45;;;;;;;;;;5059829;28;20037;-71
2022/03/28 08:50:15;;;;;;;27.27;7.95;;;;;;;;;;5044623;28;20051;-69
2022/03/28 08:52:41;;;;;;;25.25;8.32;;;;;;;;;;5044838;28;20090;-70
2022/03/28 08:55:08;;;;;;;26.20;8.35;;;;;;;;;;5044128;28;20028;-73
2022/03/28 08:57:34;;;;;;;17.50;7.57;;;;;;;;;;5040997;28;20025;-73
2022/03/28 09:00:00;;;;;;;18.70;7.68;;;;;;;;;;5023388;28;20523;-73
2022/03/28 09:02:42;;;;;;;22.25;7.38;;;;;;;;;;5042177;28;20028;-72
2022/03/28 09:05:11;;;;;;;24.13;8.32;;;;;;;;;;5060027;28;20053;-72
2022/03/28 09:07:38;;;;;;;19.30;7.05;;;;;;;;;;5045012;28;20090;-72
2022/03/28 09:10:15;;;;;;;24.92;7.22;;;;;;;;;;5039699;28;20028;-72
2022/03/28 09:12:59;;;;;;;20.88;6.80;;;;;;;;;;5028530;28;20052;-72
2022/03/28 09:15:26;;;;;;;18.73;6.45;;;;;;;;;;5042754;28;20460;-71
2022/03/28 09:17:59;;;;;;;21.50;7.68;;;;;;;;;;5052171;28;20060;-72
2022/03/28 09:20:25;;;;;;;25.83;6.93;;;;;;;;;;5040184;28;20024;-72
2022/03/28 09:22:51;;;;;;;19.10;6.03;;;;;;;;;;5057152;28;20061;-71
2022/03/28 09:25:18;;;;;;;17.90;5.97;;;;;;;;;;5041698;28;20492;-72
2022/03/28 09:27:45;;;;;;;17.52;5.43;;;;;;;;;;5057765;28;20051;-70
2022/03/28 09:30:19;;;;;;;14.50;4.95;;;;;;;;;;5045112;28;20035;-73
2022/03/28 09:32:49;;;;;;;21.33;5.40;;;;;;;;;;5043453;28;20121;-70
2022/03/28 09:35:26;;;;;;;18.95;5.40;;;;;;;;;;5042041;28;20029;-70
2022/03/28 09:37:52;;;;;;;19.58;5.75;;;;;;;;;;5046032;28;20037;-70
2022/03/28 09:40:41;;;;;;;16.38;5.75;;;;;;;;;;5041311;28;20048;-73
2022/03/28 09:43:15;;;;;;;25.83;5.85;;;;;;;;;;5034147;28;20044;-70
2022/03/28 09:45:44;;;;;;;17.80;5.55;;;;;;;;;;5048597;28;20032;-70
2022/03/28 09:48:11;;;;;;;21.15;5.70;;;;;;;;;;5061099;28;20721;-70
2022/03/28 09:50:38;;;;;;;18.10;5.55;;;;;;;;;;5061115;28;20028;-70
2022/03/28 09:53:13;;;;;;;21.95;6.30;;;;;;;;;;5044103;28;20061;-69
2022/03/28 09:55:51;;;;;;;20.90;5.38;;;;;;;;;;5041454;28;20028;-70
2022/03/28 09:58:37;;;;;;;17.88;5.38;;;;;;;;;;5054023;28;20020;-70
2022/03/28 10:01:23;;;;;;;24.92;6.15;;;;;;;;;;5054705;28;20025;-70
2022/03/28 10:03:54;;;;;;;18.25;5.95;;;;;;;;;;5047359;28;20017;-70
2022/03/28 10:06:21;;;;;;;16.67;4.70;;;;;;;;;;5052269;28;20516;-70
2022/03/28 10:08:47;;;;;;;23.25;6.15;;;;;;;;;;5059945;28;20094;-70
2022/03/28 10:11:14;;;;;;;20.27;5.70;;;;;;;;;;5058685;28;20086;-70
2022/03/28 10:13:40;;;;;;;23.67;5.55;;;;;;;;;;5060225;28;20052;-71
2022/03/28 10:16:07;;;;;;;19.10;6.10;;;;;;;;;;5060676;28;20030;-70
2022/03/28 10:18:37;;;;;;;19.45;6.53;;;;;;;;;;5060040;28;20689;-70
2022/03/28 10:21:15;;;;;;;14.43;5.20;;;;;;;;;;5060251;28;20033;-69
2022/03/28 10:23:53;;;;;;;15.77;5.68;;;;;;;;;;5058300;28;20023;-70
2022/03/28 10:26:24;;;;;;;16.02;5.72;;;;;;;;;;5060158;28;20048;-70
2022/03/28 10:29:21;;;;;;;13.53;5.70;;;;;;;;;;5059976;28;20020;-70
2022/03/28 10:31:54;;;;;;;23.42;6.63;;;;;;;;;;5036634;28;20401;-70
2022/03/28 10:34:39;;;;;;;21.65;6.57;;;;;;;;;;5039322;28;20025;-72
2022/03/28 10:37:24;;;;;;;16.02;6.03;;;;;;;;;;5040841;28;20036;-70
2022/03/28 10:39:50;;;;;;;24.27;6.32;;;;;;;;;;5040062;28;20336;-70
2022/03/28 10:42:24;;;;;;;18.90;6.05;;;;;;;;;;5050861;28;20031;-71
2022/03/28 10:45:04;;;;;;;22.05;6.72;;;;;;;;;;5044411;28;20033;-71
2022/03/28 10:48:00;;;;;;;20.70;7.70;;;;;;;;;;5059571;28;20044;-71
2022/03/28 10:50:31;;;;;;;21.30;6.93;;;;;;;;;;5045002;28;20036;-71
2022/03/28 10:53:12;;;;;;;21.15;6.45;;;;;;;;;;5054987;28;20016;-71
2022/03/28 10:55:43;;;;;;;21.42;6.28;;;;;;;;;;5063047;28;20526;-70
2022/03/28 10:58:12;;;;;;;23.50;6.85;;;;;;;;;;5049905;28;20074;-71
2022/03/28 11:00:38;;;;;;;19.15;6.35;;;;;;;;;;5047329;28;20028;-70
2022/03/28 11:03:05;;;;;;;27.55;8.10;;;;;;;;;;5046945;28;20029;-70
2022/03/28 11:05:51;;;;;;;16.70;6.35;;;;;;;;;;4997618;28;1271534;-70
2022/03/28 11:08:39;;;;;;;26.63;8.18;;;;;;;;;;5044305;28;20045;-70
2022/03/28 11:11:15;;;;;;;18.80;6.53;;;;;;;;;;5044661;28;20043;-72
2022/03/28 11:13:41;;;;;;;16.75;6.47;;;;;;;;;;5042645;28;20087;-70
2022/03/28 11:16:19;;;;;;;20.30;6.75;;;;;;;;;;5043868;28;20033;-70
2022/03/28 11:18:45;;;;;;;20.80;6.82;;;;;;;;;;5044274;28;20059;-70
2022/03/28 11:21:11;;;;;;;18.73;7.00;;;;;;;;;;5043860;28;20027;-71
2022/03/28 11:23:37;;;;;;;21.88;7.43;;;;;;;;;;5043605;28;20108;-71
2022/03/28 11:26:04;;;;;;;23.98;8.55;;;;;;;;;;5041868;28;20033;-73
2022/03/28 11:28:32;;;;;;;25.80;7.30;;;;;;;;;;5043526;28;20481;-74
2022/03/28 11:31:05;;;;;;;21.90;7.47;;;;;;;;;;5043237;28;20074;-70
2022/03/28 11:33:33;;;;;;;17.88;7.43;;;;;;;;;;5043605;28;20025;-72
2022/03/28 11:36:09;;;;;;;18.60;6.95;;;;;;;;;;5041973;28;20124;-70
2022/03/28 11:38:35;;;;;;;23.83;7.13;;;;;;;;;;5043489;28;20029;-70
2022/03/28 11:41:01;;;;;;;22.75;7.60;;;;;;;;;;5043642;28;20055;-70
2022/03/28 11:43:32;;;;;;;27.45;7.65;;;;;;;;;;5031537;28;20032;-70
2022/03/28 11:45:59;;;;;;;24.33;8.15;;;;;;;;;;5027875;28;20538;-71
2022/03/28 11:48:25;;;;;;;42.33;8.57;;;;;;;;;;5041833;28;20029;-70
2022/03/28 11:50:53;;;;;;;25.77;9.30;;;;;;;;;;5050873;28;20032;-71
2022/03/28 11:53:19;;;;;;;20.23;8.32;;;;;;;;;;5054528;28;20025;-71
2022/03/28 11:55:47;;;;;;;26.13;8.25;;;;;;;;;;5043627;28;20039;-71
2022/03/28 11:58:16;;;;;;;28.33;6.82;;;;;;;;;;5058046;28;20499;-71
2022/03/28 12:00:48;;;;;;;18.23;7.65;;;;;;;;;;5061587;28;20031;-72
2022/03/28 12:03:15;;;;;;;25.25;8.65;;;;;;;;;;5062808;28;20032;-71
2022/03/28 12:05:42;;;;;;;21.65;7.88;;;;;;;;;;5061374;28;20060;-70
2022/03/28 12:08:09;;;;;;;22.85;8.00;;;;;;;;;;5054968;28;20044;-70
2022/03/28 12:10:37;;;;;;;27.23;8.10;;;;;;;;;;5053074;28;20036;-71
2022/03/28 12:13:05;;;;;;;28.50;8.70;;;;;;;;;;5042895;28;20029;-70
2022/03/28 12:15:32;;;;;;;18.55;7.43;;;;;;;;;;5054518;28;20132;-70
2022/03/28 12:17:59;;;;;;;22.10;7.15;;;;;;;;;;5043158;28;20101;-71
2022/03/28 12:20:33;;;;;;;22.65;7.07;;;;;;;;;;5056740;28;20036;-70
2022/03/28 12:23:01;;;;;;;23.20;8.60;;;;;;;;;;5050226;28;20016;-71
2022/03/28 12:25:28;;;;;;;19.02;7.47;;;;;;;;;;5038104;28;20421;-71
2022/03/28 12:27:59;;;;;;;20.90;7.80;;;;;;;;;;5043243;28;20250;-70
2022/03/28 12:30:28;;;;;;;35.92;8.63;;;;;;;;;;5044895;28;20021;-70
2022/03/28 12:32:54;;;;;;;25.35;7.45;;;;;;;;;;5023104;28;20407;-72
2022/03/28 12:35:21;;;;;;;23.00;7.82;;;;;;;;;;5041979;28;20028;-72
2022/03/28 12:37:57;;;;;;;20.30;7.90;;;;;;;;;;5043974;28;20041;-72
2022/03/28 12:40:30;;;;;;;19.60;8.23;;;;;;;;;;5028218;28;20021;-71
2022/03/28 12:42:56;;;;;;;30.92;8.50;;;;;;;;;;5049533;28;20017;-74
2022/03/28 12:45:26;;;;;;;19.98;7.95;;;;;;;;;;5046475;28;20029;-74
2022/03/28 12:48:01;;;;;;;24.70;7.78;;;;;;;;;;5039082;28;20079;-73
2022/03/28 12:50:27;;;;;;;18.83;7.57;;;;;;;;;;5041913;28;20534;-70
2022/03/28 12:53:07;;;;;;;26.38;7.95;;;;;;;;;;5041839;28;20091;-70
2022/03/28 12:55:34;;;;;;;23.13;8.52;;;;;;;;;;5040935;28;20087;-70
2022/03/28 12:58:01;;;;;;;28.52;7.95;;;;;;;;;;5041666;28;20040;-70
2022/03/28 13:00:27;;;;;;;27.88;8.15;;;;;;;;;;5040666;28;20028;-70
2022/03/28 13:02:54;;;;;;;28.17;8.77;;;;;;;;;;5042976;28;20035;-69
2022/03/28 13:05:20;;;;;;;30.10;7.70;;;;;;;;;;5012348;28;20583;-70
2022/03/28 13:07:47;;;;;;;20.38;7.68;;;;;;;;;;5001293;28;20057;-70
2022/03/28 13:10:20;;;;;;;26.05;8.85;;;;;;;;;;5001620;28;20097;-70
2022/03/28 13:12:47;;;;;;;27.55;7.93;;;;;;;;;;5000283;28;20087;-70
2022/03/28 13:15:17;;;;;;;25.88;7.53;;;;;;;;;;5001050;28;20029;-70
2022/03/28 13:17:48;;;;;;;20.95;7.35;;;;;;;;;;5000410;28;20022;-70
2022/03/28 13:20:25;;;;;;;26.23;8.00;;;;;;;;;;5001656;28;20018;-70
2022/03/28 13:22:52;;;;;;;25.27;8.25;;;;;;;;;;5002596;28;20053;-69
2022/03/28 13:25:20;;;;;;;26.80;7.85;;;;;;;;;;5002831;28;20038;-70
2022/03/28 13:28:02;;;;;;;23.80;7.15;;;;;;;;;;5001753;28;20030;-69
2022/03/28 13:30:32;;;;;;;20.80;8.38;;;;;;;;;;5002451;28;20018;-70
2022/03/28 13:32:59;;;;;;;25.30;7.63;;;;;;;;;;5002372;28;20410;-69
2022/03/28 13:35:26;;;;;;;26.25;7.47;;;;;;;;;;5002404;28;20026;-69
2022/03/28 13:37:58;;;;;;;21.23;7.75;;;;;;;;;;5001243;28;20419;-69
2022/03/28 13:40:24;;;;;;;25.83;7.97;;;;;;;;;;5002995;28;20601;-69
2022/03/28 13:42:51;;;;;;;20.60;7.18;;;;;;;;;;5002454;28;20446;-70
2022/03/28 13:45:18;;;;;;;22.65;7.97;;;;;;;;;;5002392;28;20037;-69
2022/03/28 13:47:45;;;;;;;31.33;8.88;;;;;;;;;;5002692;28;20631;-69
2022/03/28 13:50:11;;;;;;;27.52;8.10;;;;;;;;;;5001043;28;20021;-69
2022/03/28 13:52:37;;;;;;;22.25;8.18;;;;;;;;;;5002434;28;20021;-69
2022/03/28 13:55:03;;;;;;;27.08;8.20;;;;;;;;;;5002858;28;20343;-70
2022/03/28 13:57:30;;;;;;;27.15;8.70;;;;;;;;;;5002337;28;20474;-69
2022/03/28 13:59:56;;;;;;;27.38;8.02;;;;;;;;;;5002030;28;20421;-69
2022/03/28 14:02:22;;;;;;;21.40;7.03;;;;;;;;;;5002156;28;20058;-69
2022/03/28 14:04:48;;;;;;;26.30;8.15;;;;;;;;;;5008916;28;20429;-70
2022/03/28 14:07:14;;;;;;;27.17;8.82;;;;;;;;;;5041638;28;20064;-69
2022/03/28 14:09:41;;;;;;;21.67;8.30;;;;;;;;;;5041906;28;20025;-69
2022/03/28 14:12:07;;;;;;;26.02;8.30;;;;;;;;;;5041596;28;20181;-70
2022/03/28 14:14:35;;;;;;;17.40;8.05;;;;;;;;;;5040209;28;20055;-70
2022/03/28 14:17:01;;;;;;;24.13;7.95;;;;;;;;;;5041714;28;20485;-69
2022/03/28 14:19:29;;;;;;;23.75;7.43;;;;;;;;;;5041785;28;20057;-69
2022/03/28 14:21:55;;;;;;;19.42;8.15;;;;;;;;;;5041599;28;20063;-70
2022/03/28 14:24:22;;;;;;;24.15;7.97;;;;;;;;;;5041767;28;20029;-69
2022/03/28 14:26:48;;;;;;;25.73;7.70;;;;;;;;;;5041827;28;20120;-69
2022/03/28 14:29:14;;;;;;;22.95;7.65;;;;;;;;;;5043863;28;20561;-69
2022/03/28 14:31:40;;;;;;;24.02;8.32;;;;;;;;;;5045125;28;20029;-70
2022/03/28 14:34:07;;;;;;;19.52;6.75;;;;;;;;;;5045538;28;20087;-70
2022/03/28 14:36:33;;;;;;;26.15;8.68;;;;;;;;;;5027689;28;20431;-69
2022/03/28 14:38:59;;;;;;;23.08;8.32;;;;;;;;;;5045506;28;20017;-70